createdAt,value
2019-02-24T00:01:08.664Z,29.77
2019-02-24T00:03:40.501Z,25.40
2019-02-24T00:06:14.490Z,33.10
2019-02-24T00:08:47.951Z,25.70
2019-02-24T00:11:19.764Z,26.57
2019-02-24T00:13:51.492Z,20.33
2019-02-24T00:16:36.850Z,36.00
2019-02-24T00:19:08.540Z,27.70
2019-02-24T00:21:40.478Z,23.73
2019-02-24T00:24:13.579Z,18.70
2019-02-24T00:26:45.537Z,31.23
2019-02-24T00:29:17.911Z,34.23
2019-02-24T00:31:52.083Z,30.77
2019-02-24T00:34:23.891Z,26.63
2019-02-24T00:36:55.648Z,32.67
2019-02-24T00:39:27.408Z,30.63
2019-02-24T00:41:59.102Z,27.50
2019-02-24T00:44:32.949Z,31.83
2019-02-24T00:47:06.641Z,34.83
2019-02-24T00:49:38.596Z,27.87
2019-02-24T00:52:10.629Z,28.80
2019-02-24T00:54:42.300Z,26.73
2019-02-24T00:57:13.913Z,27.60
2019-02-24T00:59:45.932Z,30.53
2019-02-24T01:02:19.378Z,22.63
2019-02-24T01:04:51.042Z,31.00
2019-02-24T01:07:22.734Z,28.97
2019-02-24T01:09:54.498Z,26.73
2019-02-24T01:12:26.583Z,13.50
2019-02-24T01:14:58.358Z,21.47
2019-02-24T01:17:30.058Z,27.77
2019-02-24T01:20:03.506Z,30.73
2019-02-24T01:22:37.539Z,28.40
2019-02-24T01:25:09.698Z,24.93
2019-02-24T01:27:41.644Z,24.10
2019-02-24T01:30:14.240Z,28.40
2019-02-24T01:32:46.418Z,17.83
2019-02-24T01:35:18.321Z,29.73
2019-02-24T01:37:50.162Z,28.13
2019-02-24T01:40:21.913Z,28.00
2019-02-24T01:42:53.668Z,12.57
2019-02-24T01:45:25.422Z,11.07
2019-02-24T01:47:57.408Z,24.63
2019-02-24T01:50:29.569Z,26.50
2019-02-24T01:53:01.384Z,31.47
2019-02-24T01:55:34.681Z,24.87
2019-02-24T01:58:07.586Z,24.53
2019-02-24T02:00:39.222Z,24.03
2019-02-24T02:03:15.666Z,15.30
2019-02-24T02:05:47.532Z,28.07
2019-02-24T02:08:19.160Z,14.90
2019-02-24T02:10:51.000Z,24.07
2019-02-24T02:13:22.720Z,22.07
2019-02-24T02:15:54.410Z,29.07
2019-02-24T02:18:26.234Z,26.47
2019-02-24T02:20:58.220Z,26.47
2019-02-24T02:23:30.016Z,20.63
2019-02-24T02:26:00.906Z,22.17
2019-02-24T02:28:32.460Z,29.30
2019-02-24T02:31:04.557Z,23.10
2019-02-24T02:33:36.224Z,28.17
2019-02-24T02:36:08.144Z,25.03
2019-02-24T02:38:40.301Z,29.17
2019-02-24T02:41:12.111Z,18.17
2019-02-24T02:43:43.748Z,14.73
2019-02-24T02:46:17.205Z,26.13
2019-02-24T02:48:48.758Z,26.03
2019-02-24T02:51:22.549Z,20.93
2019-02-24T02:53:53.824Z,33.17
2019-02-24T02:56:25.681Z,32.00
2019-02-24T02:58:57.342Z,17.53
2019-02-24T03:01:39.608Z,24.20
2019-02-24T03:04:11.373Z,29.70
2019-02-24T03:06:59.460Z,18.20
2019-02-24T03:09:31.100Z,36.83
2019-02-24T03:12:02.848Z,40.43
2019-02-24T03:14:34.779Z,20.67
2019-02-24T03:17:07.677Z,35.87
2019-02-24T03:19:40.354Z,33.47
2019-02-24T03:22:13.124Z,29.47
2019-02-24T03:24:45.557Z,17.37
2019-02-24T03:27:17.204Z,36.70
2019-02-24T03:29:49.796Z,34.77
2019-02-24T03:32:21.517Z,23.17
2019-02-24T03:34:53.191Z,37.77
2019-02-24T03:37:24.934Z,39.37
2019-02-24T03:39:56.544Z,31.10
2019-02-24T03:42:28.136Z,32.43
2019-02-24T03:44:59.833Z,33.37
2019-02-24T03:47:32.892Z,22.07
2019-02-24T03:50:05.751Z,35.93
2019-02-24T03:52:37.540Z,31.93
2019-02-24T03:55:09.220Z,31.77
2019-02-24T03:57:40.854Z,30.60
2019-02-24T04:00:22.594Z,33.93
2019-02-24T04:02:54.554Z,21.50
2019-02-24T04:05:26.317Z,32.17
2019-02-24T04:08:00.202Z,31.63
2019-02-24T04:10:31.958Z,29.80
2019-02-24T04:13:03.736Z,31.93
2019-02-24T04:15:35.550Z,35.07
2019-02-24T04:18:07.403Z,35.27
2019-02-24T04:20:38.826Z,37.30
2019-02-24T04:23:10.346Z,35.70
2019-02-24T04:25:43.479Z,34.70
2019-02-24T04:28:15.179Z,36.17
2019-02-24T04:30:46.987Z,32.27
2019-02-24T04:33:20.759Z,36.50
2019-02-24T04:35:52.888Z,30.73
2019-02-24T04:38:24.708Z,29.60
2019-02-24T04:40:56.461Z,35.43
2019-02-24T04:43:28.114Z,34.43
2019-02-24T04:46:00.775Z,29.73
2019-02-24T04:48:32.475Z,31.60
2019-02-24T04:51:04.146Z,35.23
2019-02-24T04:53:36.255Z,32.93
2019-02-24T04:56:08.013Z,30.27
2019-02-24T04:58:39.620Z,36.30
2019-02-24T05:01:11.327Z,35.67
2019-02-24T05:03:42.915Z,32.00
2019-02-24T05:06:14.538Z,23.93
2019-02-24T05:08:46.134Z,37.37
2019-02-24T05:11:17.880Z,29.27
2019-02-24T05:13:49.451Z,35.67
2019-02-24T05:16:21.188Z,38.47
2019-02-24T05:18:53.028Z,30.70
2019-02-24T05:21:24.621Z,32.20
2019-02-24T05:23:56.277Z,47.60
2019-02-24T05:26:28.597Z,37.40
2019-02-24T05:29:00.644Z,34.70
2019-02-24T05:31:32.473Z,28.50
2019-02-24T05:34:04.146Z,34.47
2019-02-24T05:36:37.527Z,32.70
2019-02-24T05:39:09.437Z,37.57
2019-02-24T05:41:41.298Z,31.47
2019-02-24T05:44:12.987Z,52.83
2019-02-24T05:46:44.852Z,26.60
2019-02-24T05:49:16.575Z,30.00
2019-02-24T05:51:48.333Z,34.77
2019-02-24T05:54:21.230Z,37.67
2019-02-24T05:56:53.266Z,29.57
2019-02-24T05:59:24.963Z,36.80
2019-02-24T06:01:59.612Z,37.77
2019-02-24T06:04:31.611Z,39.70
2019-02-24T06:07:03.415Z,22.63
2019-02-24T06:09:37.080Z,32.77
2019-02-24T06:12:08.856Z,31.40
2019-02-24T06:14:40.658Z,29.93
2019-02-24T06:17:12.298Z,31.27
2019-02-24T06:19:44.214Z,34.13
2019-02-24T06:22:16.146Z,41.57
2019-02-24T06:24:48.138Z,34.80
2019-02-24T06:27:19.807Z,36.30
2019-02-24T06:29:51.502Z,32.53
2019-02-24T06:32:24.228Z,42.23
2019-02-24T06:34:55.942Z,35.23
2019-02-24T06:37:27.928Z,37.63
2019-02-24T06:40:00.262Z,33.97
2019-02-24T06:42:31.992Z,35.17
2019-02-24T06:45:03.727Z,39.63
2019-02-24T06:47:35.353Z,38.07
2019-02-24T06:50:09.640Z,39.30
2019-02-24T06:52:41.408Z,42.17
2019-02-24T06:55:13.993Z,46.50
2019-02-24T06:57:46.084Z,34.73
2019-02-24T07:00:18.866Z,35.23
2019-02-24T07:02:50.860Z,34.23
2019-02-24T07:05:22.615Z,41.13
2019-02-24T07:07:56.104Z,39.90
2019-02-24T07:10:27.872Z,37.13
2019-02-24T07:12:59.611Z,37.93
2019-02-24T07:15:31.638Z,38.20
2019-02-24T07:18:03.578Z,21.10
2019-02-24T07:20:35.261Z,39.93
2019-02-24T07:23:19.390Z,31.00
2019-02-24T07:25:42.804Z,38.23
2019-02-24T07:28:14.402Z,40.40
2019-02-24T07:30:49.005Z,35.47
2019-02-24T07:33:20.706Z,39.23
2019-02-24T07:35:52.584Z,39.37
2019-02-24T07:38:24.643Z,40.47
2019-02-24T07:40:56.800Z,33.07
2019-02-24T07:43:28.827Z,40.83
2019-02-24T07:46:12.364Z,37.33
2019-02-24T07:48:44.284Z,27.87
2019-02-24T07:51:16.112Z,18.80
2019-02-24T07:53:48.134Z,35.77
2019-02-24T07:56:20.248Z,32.10
2019-02-24T07:58:52.116Z,38.47
2019-02-24T08:01:23.978Z,33.10
2019-02-24T08:03:57.076Z,29.10
2019-02-24T08:06:29.149Z,30.87
2019-02-24T08:09:00.696Z,32.67
2019-02-24T08:11:32.239Z,24.00
2019-02-24T08:14:06.537Z,31.83
2019-02-24T08:16:38.347Z,33.10
2019-02-24T08:19:09.994Z,31.67
2019-02-24T08:21:43.049Z,34.37
2019-02-24T08:24:15.333Z,29.97
2019-02-24T08:26:47.087Z,38.17
2019-02-24T08:29:19.063Z,31.27
2019-02-24T08:31:50.908Z,36.40
2019-02-24T08:34:22.720Z,28.70
2019-02-24T08:36:54.530Z,28.40
2019-02-24T08:39:28.949Z,30.67
2019-02-24T08:42:00.778Z,34.90
2019-02-24T08:44:32.879Z,30.27
2019-02-24T08:47:04.774Z,36.90
2019-02-24T08:49:39.004Z,32.90
2019-02-24T08:52:13.062Z,32.43
2019-02-24T08:54:44.898Z,32.07
2019-02-24T08:57:17.820Z,35.57
2019-02-24T08:59:49.306Z,32.10
2019-02-24T09:02:21.414Z,26.10
2019-02-24T09:04:53.180Z,33.30
2019-02-24T09:07:24.959Z,31.70
2019-02-24T09:09:57.219Z,28.30
2019-02-24T09:12:29.050Z,33.57
2019-02-24T09:15:01.200Z,27.40
2019-02-24T09:17:32.934Z,29.87
2019-02-24T09:20:04.644Z,31.13
2019-02-24T09:22:38.294Z,25.20
2019-02-24T09:25:10.065Z,25.97
2019-02-24T09:27:42.022Z,32.50
2019-02-24T09:30:13.787Z,27.37
2019-02-24T09:32:45.864Z,25.87
2019-02-24T09:35:18.130Z,30.73
2019-02-24T09:37:49.980Z,24.97
2019-02-24T09:40:21.576Z,27.40
2019-02-24T09:42:53.831Z,28.43
2019-02-24T09:45:25.913Z,45.97
2019-02-24T09:47:58.583Z,24.47
2019-02-24T09:50:30.689Z,26.17
2019-02-24T09:53:03.380Z,43.00
2019-02-24T09:55:36.105Z,25.67
2019-02-24T09:58:08.000Z,25.40
2019-02-24T10:00:39.827Z,23.97
2019-02-24T10:03:11.870Z,25.87
2019-02-24T10:05:43.560Z,28.70
2019-02-24T10:08:15.531Z,31.63
2019-02-24T10:10:47.562Z,26.00
2019-02-24T10:13:19.168Z,35.57
2019-02-24T10:15:51.047Z,30.67
2019-02-24T10:18:22.704Z,27.40
2019-02-24T10:20:54.788Z,28.03
2019-02-24T10:23:27.141Z,27.43
2019-02-24T10:25:58.970Z,26.43
2019-02-24T10:28:30.842Z,22.23
2019-02-24T10:31:02.565Z,28.20
2019-02-24T10:33:34.943Z,24.03
2019-02-24T10:36:06.881Z,28.43
2019-02-24T10:38:41.715Z,26.23
2019-02-24T10:41:13.478Z,24.87
2019-02-24T10:43:45.150Z,20.13
2019-02-24T10:46:17.109Z,23.73
2019-02-24T10:48:49.083Z,24.40
2019-02-24T10:51:21.161Z,26.83
2019-02-24T10:53:53.011Z,23.17
2019-02-24T10:56:24.626Z,23.83
2019-02-24T10:58:56.840Z,62.40
2019-02-24T11:01:30.370Z,24.13
2019-02-24T11:04:19.066Z,25.23
2019-02-24T11:06:50.784Z,24.77
2019-02-24T11:09:23.590Z,35.10
2019-02-24T11:11:55.514Z,37.90
2019-02-24T11:14:27.218Z,34.63
2019-02-24T11:16:59.230Z,27.87
2019-02-24T11:19:32.020Z,25.27
2019-02-24T11:22:03.762Z,52.93
2019-02-24T11:24:37.126Z,24.90
2019-02-24T11:27:15.804Z,25.73
2019-02-24T11:29:48.196Z,72.10
2019-02-24T11:32:21.860Z,26.77
2019-02-24T11:34:53.822Z,25.87
2019-02-24T11:37:25.527Z,32.90
2019-02-24T11:39:57.111Z,26.50
2019-02-24T11:42:29.194Z,33.57
2019-02-24T11:45:00.817Z,104.23
2019-02-24T11:47:32.570Z,104.23
2019-02-24T11:50:04.525Z,27.93
2019-02-24T11:52:36.854Z,31.70
2019-02-24T11:55:08.886Z,60.23
2019-02-24T11:57:40.768Z,36.67
2019-02-24T12:00:13.503Z,28.40
2019-02-24T12:02:45.816Z,24.77
2019-02-24T12:05:17.831Z,34.77
2019-02-24T12:07:51.416Z,33.90
2019-02-24T12:10:26.115Z,28.77
2019-02-24T12:12:57.880Z,22.63
2019-02-24T12:15:29.879Z,30.17
2019-02-24T12:18:01.868Z,33.87
2019-02-24T12:20:33.782Z,27.57
2019-02-24T12:23:06.926Z,35.17
2019-02-24T12:25:40.615Z,31.43
2019-02-24T12:28:12.614Z,31.37
2019-02-24T12:30:46.673Z,27.30
2019-02-24T12:33:18.455Z,31.13
2019-02-24T12:35:50.264Z,32.93
2019-02-24T12:38:24.406Z,34.73
2019-02-24T12:40:56.468Z,27.47
2019-02-24T12:43:27.996Z,35.10
2019-02-24T12:46:02.216Z,30.37
2019-02-24T12:48:33.886Z,35.33
2019-02-24T12:51:06.109Z,34.37
2019-02-24T12:53:38.130Z,30.47
2019-02-24T12:56:11.282Z,31.47
2019-02-24T12:58:43.123Z,22.50
2019-02-24T13:01:14.898Z,30.30
2019-02-24T13:03:46.706Z,31.57
2019-02-24T13:06:19.628Z,30.23
2019-02-24T13:08:51.495Z,39.23
2019-02-24T13:11:24.692Z,31.37
2019-02-24T13:13:56.694Z,31.77
2019-02-24T13:16:28.864Z,30.57
2019-02-24T13:19:01.491Z,28.83
2019-02-24T13:21:33.457Z,30.33
2019-02-24T13:24:05.467Z,42.10
2019-02-24T13:26:37.777Z,36.13
2019-02-24T13:29:09.684Z,29.30
2019-02-24T13:31:41.482Z,30.43
2019-02-24T13:34:13.457Z,30.17
2019-02-24T13:36:45.255Z,39.10
2019-02-24T13:39:17.222Z,45.03
2019-02-24T13:41:51.917Z,30.80
2019-02-24T13:44:23.884Z,31.53
2019-02-24T13:46:55.471Z,27.80
2019-02-24T13:49:27.670Z,30.80
2019-02-24T13:51:59.847Z,27.47
2019-02-24T13:54:32.818Z,30.80
2019-02-24T13:57:04.816Z,34.30
2019-02-24T13:59:38.324Z,35.20
2019-02-24T14:02:23.761Z,35.47
2019-02-24T14:04:50.163Z,33.13
2019-02-24T14:07:21.777Z,48.50
2019-02-24T14:09:53.804Z,41.23
2019-02-24T14:12:25.666Z,34.63
2019-02-24T14:14:57.714Z,36.97
2019-02-24T14:17:29.780Z,34.10
2019-02-24T14:20:01.665Z,34.80
2019-02-24T14:22:33.582Z,62.03
2019-02-24T14:25:05.824Z,40.07
2019-02-24T14:27:39.316Z,40.90
2019-02-24T14:30:12.736Z,62.57
2019-02-24T14:32:44.723Z,34.87
2019-02-24T14:35:16.996Z,40.63
2019-02-24T14:37:50.527Z,32.00
2019-02-24T14:40:25.697Z,37.23
2019-02-24T14:42:57.438Z,53.03
2019-02-24T14:45:29.709Z,36.03
2019-02-24T14:48:04.110Z,38.63
2019-02-24T14:50:36.110Z,32.30
2019-02-24T14:53:10.397Z,33.60
2019-02-24T14:55:43.475Z,115.13
2019-02-24T14:58:15.323Z,40.73
2019-02-24T15:00:47.050Z,28.33
2019-02-24T15:03:19.068Z,39.33
2019-02-24T15:05:50.837Z,33.57
2019-02-24T15:08:22.880Z,43.47
2019-02-24T15:10:54.609Z,28.27
2019-02-24T15:13:26.591Z,31.67
2019-02-24T15:16:01.632Z,31.30
2019-02-24T15:18:33.302Z,35.97
2019-02-24T15:21:05.330Z,26.90
2019-02-24T15:23:37.142Z,52.53
2019-02-24T15:26:09.064Z,32.00
2019-02-24T15:28:40.970Z,35.50
2019-02-24T15:31:12.736Z,38.37
2019-02-24T15:33:44.978Z,87.67
2019-02-24T15:36:18.372Z,68.13
2019-02-24T15:38:50.116Z,33.43
2019-02-24T15:41:29.494Z,34.47
2019-02-24T15:43:55.473Z,29.43
2019-02-24T15:46:27.359Z,30.57
2019-02-24T15:48:59.366Z,39.37
2019-02-24T15:51:33.680Z,33.80
2019-02-24T15:54:05.540Z,33.30
2019-02-24T15:56:38.055Z,41.23
2019-02-24T15:59:09.858Z,47.13
2019-02-24T16:01:41.582Z,60.43
2019-02-24T16:04:13.596Z,48.83
2019-02-24T16:06:45.878Z,42.40
2019-02-24T16:09:19.662Z,46.87
2019-02-24T16:11:51.032Z,42.57
2019-02-24T16:14:23.912Z,43.53
2019-02-24T16:16:55.641Z,46.20
2019-02-24T16:19:30.792Z,42.00
2019-02-24T16:22:04.938Z,50.20
2019-02-24T16:24:36.723Z,44.80
2019-02-24T16:27:08.581Z,34.33
2019-02-24T16:29:42.490Z,45.03
2019-02-24T16:32:16.990Z,44.07
2019-02-24T16:34:47.062Z,49.03
2019-02-24T16:37:20.366Z,44.77
2019-02-24T16:39:52.088Z,61.03
2019-02-24T16:42:24.970Z,46.83
2019-02-24T16:44:57.180Z,59.60
2019-02-24T16:47:29.038Z,47.37
2019-02-24T16:50:02.432Z,52.90
2019-02-24T16:52:34.325Z,47.87
2019-02-24T16:55:05.964Z,47.30
2019-02-24T16:57:38.124Z,47.57
2019-02-24T17:00:12.834Z,54.83
2019-02-24T17:02:45.478Z,50.13
2019-02-24T17:05:19.324Z,52.53
2019-02-24T17:07:53.666Z,49.03
2019-02-24T17:10:25.402Z,46.50
2019-02-24T17:12:57.984Z,44.90
2019-02-24T17:15:29.968Z,50.10
2019-02-24T17:18:02.254Z,43.93
2019-02-24T17:20:34.234Z,41.40
2019-02-24T17:23:06.004Z,40.97
2019-02-24T17:25:40.318Z,43.83
2019-02-24T17:28:12.316Z,51.27
2019-02-24T17:30:45.113Z,49.80
2019-02-24T17:33:16.986Z,55.43
2019-02-24T17:35:48.858Z,58.23
2019-02-24T17:38:21.249Z,50.03
2019-02-24T17:40:52.896Z,56.20
2019-02-24T17:43:24.882Z,51.40
2019-02-24T17:45:58.622Z,56.27
2019-02-24T17:48:30.626Z,52.23
2019-02-24T17:51:02.410Z,57.23
2019-02-24T17:53:34.678Z,53.00
2019-02-24T17:56:06.493Z,66.57
2019-02-24T17:58:39.358Z,44.03
2019-02-24T18:01:11.130Z,51.63
2019-02-24T18:03:43.554Z,55.17
2019-02-24T18:06:16.195Z,54.17
2019-02-24T18:08:48.216Z,49.27
2019-02-24T18:11:20.479Z,59.57
2019-02-24T18:13:55.770Z,53.57
2019-02-24T18:16:30.053Z,54.27
2019-02-24T18:19:01.822Z,58.97
2019-02-24T18:21:35.886Z,57.30
2019-02-24T18:24:10.104Z,54.47
2019-02-24T18:26:41.912Z,52.67
2019-02-24T18:29:13.604Z,113.23
2019-02-24T18:31:45.478Z,74.57
2019-02-24T18:34:17.543Z,57.87
2019-02-24T18:36:50.534Z,56.03
2019-02-24T18:39:22.316Z,60.80
2019-02-24T18:41:54.471Z,55.10
2019-02-24T18:44:26.680Z,50.63
2019-02-24T18:46:58.430Z,55.77
2019-02-24T18:49:30.682Z,51.70
2019-02-24T18:52:03.145Z,53.07
2019-02-24T18:54:37.400Z,59.53
2019-02-24T18:57:09.100Z,64.93
2019-02-24T18:59:45.830Z,51.87
2019-02-24T19:02:19.974Z,52.87
2019-02-24T19:04:56.726Z,74.20
2019-02-24T19:07:28.977Z,52.37
2019-02-24T19:10:00.956Z,71.90
2019-02-24T19:12:33.727Z,52.50
2019-02-24T19:15:05.776Z,50.57
2019-02-24T19:17:39.454Z,53.67
2019-02-24T19:20:11.450Z,59.57
2019-02-24T19:22:45.363Z,58.47
2019-02-24T19:25:18.027Z,55.67
2019-02-24T19:27:49.936Z,54.93
2019-02-24T19:30:22.311Z,62.03
2019-02-24T19:32:54.064Z,51.43
2019-02-24T19:35:25.834Z,50.40
2019-02-24T19:38:00.532Z,60.83
2019-02-24T19:40:42.310Z,56.97
2019-02-24T19:43:14.478Z,54.37
2019-02-24T19:45:51.479Z,59.17
2019-02-24T19:48:23.310Z,49.30
2019-02-24T19:50:56.546Z,64.07
2019-02-24T19:53:30.487Z,50.10
2019-02-24T19:56:06.100Z,60.77
2019-02-24T19:58:37.886Z,56.37
2019-02-24T20:01:09.540Z,61.37
2019-02-24T20:03:41.609Z,58.83
2019-02-24T20:06:13.536Z,53.57
2019-02-24T20:08:45.586Z,55.03
2019-02-24T20:11:20.422Z,55.10
2019-02-24T20:13:52.298Z,50.03
2019-02-24T20:16:25.404Z,53.00
2019-02-24T20:18:57.202Z,54.03
2019-02-24T20:21:30.859Z,59.13
2019-02-24T20:24:02.901Z,54.63
2019-02-24T20:26:42.219Z,50.37
2019-02-24T20:29:15.695Z,51.33
2019-02-24T20:31:52.843Z,53.97
2019-02-24T20:34:25.759Z,54.07
2019-02-24T20:36:57.068Z,51.33
2019-02-24T20:39:31.770Z,60.60
2019-02-24T20:42:03.528Z,51.23
2019-02-24T20:44:39.850Z,53.90
2019-02-24T20:47:12.724Z,53.53
2019-02-24T20:49:45.658Z,47.50
2019-02-24T20:52:19.020Z,58.67
2019-02-24T20:54:53.332Z,57.93
2019-02-24T20:57:25.138Z,52.53
2019-02-24T20:59:58.460Z,53.03
2019-02-24T21:02:30.599Z,41.60
2019-02-24T21:05:02.321Z,50.60
2019-02-24T21:07:34.260Z,53.90
2019-02-24T21:10:06.018Z,50.33
2019-02-24T21:12:39.828Z,55.97
2019-02-24T21:15:14.677Z,47.57
2019-02-24T21:17:48.569Z,36.10
2019-02-24T21:20:22.088Z,42.27
2019-02-24T21:22:53.913Z,44.77
2019-02-24T21:25:27.024Z,42.23
2019-02-24T21:27:58.844Z,44.80
2019-02-24T21:30:31.820Z,48.27
2019-02-24T21:33:03.933Z,50.43
2019-02-24T21:35:37.451Z,48.90
2019-02-24T21:38:09.133Z,38.40
2019-02-24T21:40:42.828Z,44.87
2019-02-24T21:43:14.662Z,49.00
2019-02-24T21:45:46.368Z,47.97
2019-02-24T21:48:18.080Z,53.90
2019-02-24T21:50:50.271Z,51.13
2019-02-24T21:53:24.325Z,51.67
2019-02-24T21:56:00.160Z,49.50
2019-02-24T21:58:32.098Z,59.07
2019-02-24T22:01:04.309Z,43.50
2019-02-24T22:03:35.782Z,50.93
2019-02-24T22:06:09.564Z,49.10
2019-02-24T22:08:41.574Z,52.23
2019-02-24T22:11:14.461Z,54.17
2019-02-24T22:13:46.286Z,44.33
2019-02-24T22:16:18.219Z,42.67
2019-02-24T22:18:50.072Z,60.00
2019-02-24T22:21:22.038Z,45.67
2019-02-24T22:23:53.952Z,46.37
2019-02-24T22:26:25.842Z,49.60
2019-02-24T22:28:57.859Z,48.13
2019-02-24T22:31:29.570Z,49.07
2019-02-24T22:34:02.780Z,46.87
2019-02-24T22:36:34.426Z,62.53
2019-02-24T22:39:07.154Z,43.37
2019-02-24T22:41:40.518Z,43.90
2019-02-24T22:44:12.444Z,44.20
2019-02-24T22:46:44.402Z,46.50
2019-02-24T22:49:16.232Z,36.77
2019-02-24T22:51:49.104Z,46.50
2019-02-24T22:54:22.420Z,49.00
2019-02-24T22:56:57.545Z,57.80
2019-02-24T22:59:29.266Z,46.00
2019-02-24T23:02:04.450Z,46.73
2019-02-24T23:04:37.131Z,49.20
2019-02-24T23:07:08.849Z,51.73
2019-02-24T23:09:44.202Z,50.30
2019-02-24T23:12:15.878Z,43.53
2019-02-24T23:14:47.626Z,45.60
2019-02-24T23:17:20.834Z,34.63
2019-02-24T23:19:53.415Z,46.80
2019-02-24T23:22:26.456Z,50.53
2019-02-24T23:24:58.399Z,43.77
2019-02-24T23:27:32.298Z,54.40
2019-02-24T23:30:04.866Z,44.60
2019-02-24T23:32:37.924Z,49.70
2019-02-24T23:35:15.198Z,45.93
2019-02-24T23:37:46.984Z,48.80
2019-02-24T23:40:18.658Z,47.20
2019-02-24T23:42:50.326Z,45.67
2019-02-24T23:45:22.081Z,47.53
2019-02-24T23:47:54.150Z,45.33
2019-02-24T23:50:28.283Z,43.33
2019-02-24T23:52:59.451Z,48.57
2019-02-24T23:55:31.102Z,46.40
2019-02-24T23:58:03.214Z,43.07
